createdAt,value
2023-05-05T00:01:05.219Z,12.00
2023-05-05T00:03:35.991Z,12.00
2023-05-05T00:06:08.415Z,11.94
2023-05-05T00:08:36.991Z,11.90
2023-05-05T00:11:05.679Z,11.90
2023-05-05T00:13:34.261Z,11.90
2023-05-05T00:16:03.262Z,11.80
2023-05-05T00:18:34.101Z,11.80
2023-05-05T00:21:02.689Z,11.90
2023-05-05T00:23:31.264Z,11.90
2023-05-05T00:25:59.747Z,11.90
2023-05-05T00:28:28.336Z,11.80
2023-05-05T00:30:56.943Z,11.80
2023-05-05T00:33:26.119Z,11.80
2023-05-05T00:35:54.802Z,11.78
2023-05-05T00:38:23.697Z,11.70
2023-05-05T00:40:52.281Z,11.70
2023-05-05T00:43:21.177Z,11.60
2023-05-05T00:45:59.093Z,11.60
2023-05-05T00:48:30.875Z,11.52
2023-05-05T00:51:00.138Z,11.50
2023-05-05T00:53:29.345Z,11.50
2023-05-05T00:55:58.438Z,11.40
2023-05-05T00:58:27.726Z,11.40
2023-05-05T01:00:56.831Z,11.40
2023-05-05T01:03:25.563Z,11.40
2023-05-05T01:06:08.643Z,11.30
2023-05-05T01:08:51.566Z,11.30
2023-05-05T01:11:36.428Z,11.30
2023-05-05T01:14:42.388Z,11.20
2023-05-05T01:17:19.773Z,11.20
2023-05-05T01:20:42.229Z,11.20
2023-05-05T01:23:16.757Z,11.24
2023-05-05T01:26:13.396Z,11.30
2023-05-05T01:29:06.555Z,11.30
2023-05-05T01:31:58.565Z,11.32
2023-05-05T01:34:35.365Z,11.40
2023-05-05T01:37:31.185Z,11.36
2023-05-05T01:40:06.977Z,11.32
2023-05-05T01:42:38.245Z,11.30
2023-05-05T01:45:09.785Z,11.30
2023-05-05T01:47:40.715Z,11.30
2023-05-05T01:50:11.724Z,11.30
2023-05-05T01:52:42.402Z,11.30
2023-05-05T01:55:12.526Z,11.30
2023-05-05T01:57:43.070Z,11.30
2023-05-05T02:00:13.033Z,11.30
2023-05-05T02:02:50.090Z,11.30
2023-05-05T02:05:19.857Z,11.30
2023-05-05T02:07:50.858Z,11.30
2023-05-05T02:10:19.649Z,11.30
2023-05-05T02:12:49.557Z,11.30
2023-05-05T02:15:19.081Z,11.30
2023-05-05T02:17:52.416Z,11.38
2023-05-05T02:20:22.701Z,11.30
2023-05-05T02:22:51.385Z,11.32
2023-05-05T02:25:20.474Z,11.30
2023-05-05T02:27:52.233Z,11.30
2023-05-05T02:30:21.230Z,11.30
2023-05-05T02:33:01.828Z,11.20
2023-05-05T02:35:38.564Z,11.22
2023-05-05T02:38:13.932Z,11.20
2023-05-05T02:40:45.023Z,11.20
2023-05-05T02:43:22.392Z,11.10
2023-05-05T02:45:51.045Z,11.10
2023-05-05T02:48:20.439Z,11.10
2023-05-05T02:50:49.648Z,11.00
2023-05-05T02:53:27.448Z,11.00
2023-05-05T02:56:24.973Z,11.00
2023-05-05T02:59:15.351Z,11.00
2023-05-05T03:02:10.090Z,11.00
2023-05-05T03:04:49.509Z,11.00
2023-05-05T03:07:43.093Z,11.00
2023-05-05T03:10:21.617Z,11.00
2023-05-05T03:12:57.314Z,11.00
2023-05-05T03:15:51.906Z,10.96
2023-05-05T03:18:25.482Z,10.92
2023-05-05T03:21:08.800Z,10.90
2023-05-05T03:23:39.749Z,10.90
2023-05-05T03:26:12.458Z,10.90
2023-05-05T03:28:43.759Z,10.90
2023-05-05T03:31:19.140Z,10.90
2023-05-05T03:33:51.174Z,10.90
2023-05-05T03:36:21.189Z,10.98
2023-05-05T03:38:50.084Z,11.00
2023-05-05T03:41:20.052Z,11.00
2023-05-05T03:43:48.581Z,11.00
2023-05-05T03:46:17.811Z,11.00
2023-05-05T03:48:46.569Z,11.00
2023-05-05T03:51:15.876Z,10.96
2023-05-05T03:53:44.668Z,10.92
2023-05-05T03:56:13.454Z,10.90
2023-05-05T03:58:42.546Z,10.90
2023-05-05T04:01:11.236Z,10.90
2023-05-05T04:03:39.969Z,10.96
2023-05-05T04:06:08.714Z,10.98
2023-05-05T04:08:37.919Z,10.90
2023-05-05T04:11:07.278Z,11.00
2023-05-05T04:13:36.114Z,11.00
2023-05-05T04:16:05.819Z,11.08
2023-05-05T04:18:34.575Z,11.00
2023-05-05T04:21:03.715Z,11.00
2023-05-05T04:23:33.003Z,11.00
2023-05-05T04:26:02.520Z,11.00
2023-05-05T04:28:31.297Z,11.10
2023-05-05T04:31:01.463Z,11.10
2023-05-05T04:33:31.746Z,11.10
2023-05-05T04:36:00.738Z,11.16
2023-05-05T04:38:29.679Z,11.20
2023-05-05T04:41:00.259Z,11.20
2023-05-05T04:43:29.069Z,11.30
2023-05-05T04:45:58.092Z,11.54
2023-05-05T04:48:29.719Z,11.78
2023-05-05T04:50:58.501Z,11.90
2023-05-05T04:53:27.285Z,12.04
2023-05-05T04:55:56.273Z,12.10
2023-05-05T04:58:24.866Z,12.16
2023-05-05T05:00:53.648Z,12.40
2023-05-05T05:03:22.425Z,12.66
2023-05-05T05:05:51.359Z,12.90
2023-05-05T05:08:20.237Z,13.10
2023-05-05T05:10:49.150Z,13.30
2023-05-05T05:13:18.886Z,13.50
2023-05-05T05:15:47.743Z,13.60
2023-05-05T05:18:17.027Z,13.72
2023-05-05T05:20:46.626Z,13.90
2023-05-05T05:23:15.929Z,14.10
2023-05-05T05:25:46.558Z,14.20
2023-05-05T05:28:15.855Z,14.38
2023-05-05T05:30:48.848Z,14.50
2023-05-05T05:33:17.635Z,14.50
2023-05-05T05:35:46.631Z,14.64
2023-05-05T05:38:15.724Z,14.42
2023-05-05T05:40:44.427Z,14.88
2023-05-05T05:43:13.402Z,15.20
2023-05-05T05:45:42.218Z,15.60
2023-05-05T05:48:11.643Z,16.00
2023-05-05T05:50:40.691Z,16.12
2023-05-05T05:53:09.380Z,16.74
2023-05-05T05:55:38.065Z,17.14
2023-05-05T05:58:06.753Z,17.26
2023-05-05T06:00:35.437Z,17.50
2023-05-05T06:03:05.640Z,17.62
2023-05-05T06:05:36.706Z,17.60
2023-05-05T06:08:05.593Z,17.70
2023-05-05T06:10:36.164Z,18.14
2023-05-05T06:13:08.407Z,18.02
2023-05-05T06:15:38.141Z,18.10
2023-05-05T06:18:07.532Z,18.10
2023-05-05T06:20:39.575Z,17.84
2023-05-05T06:23:08.259Z,18.10
2023-05-05T06:25:39.514Z,18.50
2023-05-05T06:28:08.092Z,18.82
2023-05-05T06:30:36.677Z,18.96
2023-05-05T06:33:05.315Z,19.26
2023-05-05T06:35:34.157Z,19.54
2023-05-05T06:38:02.842Z,20.32
2023-05-05T06:40:32.125Z,20.90
2023-05-05T06:43:00.732Z,21.22
2023-05-05T06:45:33.614Z,21.58
2023-05-05T06:48:02.393Z,22.20
2023-05-05T06:50:31.085Z,22.00
2023-05-05T06:52:59.884Z,22.20
2023-05-05T06:55:28.562Z,21.36
2023-05-05T06:57:57.048Z,20.86
2023-05-05T07:00:25.942Z,20.80
2023-05-05T07:02:54.592Z,20.66
2023-05-05T07:05:26.291Z,20.68
2023-05-05T07:07:57.070Z,20.62
2023-05-05T07:10:26.528Z,20.00
2023-05-05T07:12:55.670Z,19.24
2023-05-05T07:15:29.086Z,18.58
2023-05-05T07:17:58.519Z,18.04
2023-05-05T07:20:27.420Z,17.70
2023-05-05T07:22:56.102Z,18.08
2023-05-05T07:25:24.693Z,18.46
2023-05-05T07:27:53.588Z,19.04
2023-05-05T07:30:22.541Z,19.70
2023-05-05T07:32:52.115Z,20.58
2023-05-05T07:35:21.618Z,21.48
2023-05-05T07:37:50.375Z,22.14
2023-05-05T07:40:19.062Z,22.78
2023-05-05T07:42:47.766Z,23.32
2023-05-05T07:45:16.535Z,23.74
2023-05-05T07:47:45.354Z,24.08
2023-05-05T07:50:14.018Z,24.28
2023-05-05T07:52:48.311Z,24.28
2023-05-05T07:55:21.026Z,24.32
2023-05-05T07:57:50.026Z,24.10
2023-05-05T08:00:19.775Z,24.58
2023-05-05T08:02:48.820Z,24.88
2023-05-05T08:05:18.029Z,25.50
2023-05-05T08:07:46.701Z,25.90
2023-05-05T08:10:15.179Z,26.24
2023-05-05T08:12:44.086Z,26.20
2023-05-05T08:15:13.166Z,26.00
2023-05-05T08:17:50.998Z,25.32
2023-05-05T08:20:21.325Z,25.00
2023-05-05T08:22:50.289Z,24.94
2023-05-05T08:25:19.187Z,25.32
2023-05-05T08:27:47.767Z,25.70
2023-05-05T08:30:19.732Z,25.50
2023-05-05T08:32:48.460Z,24.98
2023-05-05T08:35:17.060Z,24.64
2023-05-05T08:37:45.689Z,24.40
2023-05-05T08:40:15.095Z,24.46
2023-05-05T08:42:46.986Z,24.28
2023-05-05T08:45:16.284Z,24.42
2023-05-05T08:47:46.537Z,24.36
2023-05-05T08:50:17.721Z,24.50
2023-05-05T08:52:54.103Z,24.68
2023-05-05T08:55:26.695Z,24.76
2023-05-05T08:58:03.070Z,24.78
2023-05-05T09:00:31.903Z,24.60
2023-05-05T09:03:01.967Z,24.50
2023-05-05T09:05:30.936Z,24.50
2023-05-05T09:07:59.529Z,24.54
2023-05-05T09:10:29.394Z,24.50
2023-05-05T09:12:58.193Z,24.66
2023-05-05T09:15:28.656Z,24.80
2023-05-05T09:18:01.275Z,24.90
2023-05-05T09:20:38.660Z,24.28
2023-05-05T09:23:19.417Z,23.68
2023-05-05T09:26:04.685Z,23.80
2023-05-05T09:28:33.429Z,23.68
2023-05-05T09:31:16.428Z,23.34
2023-05-05T09:33:46.394Z,23.16
2023-05-05T09:36:15.349Z,23.06
2023-05-05T09:39:04.945Z,23.10
2023-05-05T09:41:44.535Z,23.30
2023-05-05T09:44:16.907Z,23.04
2023-05-05T09:46:55.523Z,22.70
2023-05-05T09:49:25.711Z,22.26
2023-05-05T09:51:55.389Z,22.00
2023-05-05T09:54:30.206Z,21.90
2023-05-05T09:56:58.646Z,21.70
2023-05-05T09:59:27.435Z,21.62
2023-05-05T10:02:11.292Z,21.60
2023-05-05T10:04:40.484Z,21.98
2023-05-05T10:07:09.073Z,21.88
2023-05-05T10:09:37.746Z,21.82
2023-05-05T10:12:07.046Z,21.90
2023-05-05T10:14:36.353Z,22.00
2023-05-05T10:17:06.495Z,22.22
2023-05-05T10:19:37.574Z,22.40
2023-05-05T10:22:10.069Z,22.40
2023-05-05T10:24:43.250Z,22.40
2023-05-05T10:27:20.781Z,22.42
2023-05-05T10:30:13.361Z,22.40
2023-05-05T10:33:00.541Z,22.40
2023-05-05T10:35:40.092Z,22.20
2023-05-05T10:38:13.252Z,21.90
2023-05-05T10:40:46.230Z,21.90
2023-05-05T10:43:16.005Z,21.96
2023-05-05T10:45:45.357Z,21.76
2023-05-05T10:48:25.178Z,21.80
2023-05-05T10:51:31.074Z,21.84
2023-05-05T10:54:22.027Z,21.70
2023-05-05T10:56:51.977Z,21.62
2023-05-05T10:59:40.214Z,21.64
2023-05-05T11:02:31.946Z,21.54
2023-05-05T11:05:03.956Z,21.60
2023-05-05T11:07:34.076Z,21.80
2023-05-05T11:10:06.545Z,21.80
2023-05-05T11:13:02.670Z,22.00
2023-05-05T11:15:31.714Z,22.00
2023-05-05T11:18:08.266Z,22.00
2023-05-05T11:20:38.055Z,22.00
2023-05-05T11:23:22.312Z,21.80
2023-05-05T11:25:52.027Z,21.60
2023-05-05T11:28:31.803Z,21.50
2023-05-05T11:31:03.131Z,21.52
2023-05-05T11:33:37.953Z,21.70
2023-05-05T11:36:12.708Z,21.50
2023-05-05T11:39:03.069Z,21.70
2023-05-05T11:41:34.842Z,22.10
2023-05-05T11:44:10.888Z,22.20
2023-05-05T11:46:42.039Z,21.88
2023-05-05T11:49:10.722Z,21.60
2023-05-05T11:51:40.121Z,21.44
2023-05-05T11:54:08.808Z,21.22
2023-05-05T11:56:54.087Z,21.30
2023-05-05T11:59:23.606Z,21.36
2023-05-05T12:01:52.891Z,21.40
2023-05-05T12:04:21.514Z,21.60
2023-05-05T12:06:50.598Z,21.70
2023-05-05T12:09:23.361Z,21.80
2023-05-05T12:11:56.958Z,21.54
2023-05-05T12:14:26.477Z,21.60
2023-05-05T12:17:08.610Z,21.36
2023-05-05T12:19:45.545Z,21.30
2023-05-05T12:22:23.682Z,21.50
2023-05-05T12:25:08.141Z,21.44
2023-05-05T12:27:36.920Z,21.48
2023-05-05T12:30:15.745Z,21.60
2023-05-05T12:32:45.799Z,21.40
2023-05-05T12:35:14.961Z,21.50
2023-05-05T12:37:44.045Z,21.30
2023-05-05T12:40:52.077Z,21.32
2023-05-05T12:43:33.477Z,21.38
2023-05-05T12:46:13.221Z,21.20
2023-05-05T12:48:48.420Z,21.20
2023-05-05T12:51:18.696Z,21.10
2023-05-05T12:53:50.003Z,21.20
2023-05-05T12:56:41.012Z,21.00
2023-05-05T12:59:31.019Z,20.84
2023-05-05T13:02:03.713Z,20.70
2023-05-05T13:04:32.971Z,20.50
2023-05-05T13:07:15.958Z,20.50
2023-05-05T13:09:44.994Z,20.70
2023-05-05T13:12:15.150Z,20.84
2023-05-05T13:14:44.007Z,20.96
2023-05-05T13:17:13.854Z,20.80
2023-05-05T13:19:46.544Z,20.70
2023-05-05T13:22:15.488Z,20.70
2023-05-05T13:24:51.905Z,20.58
2023-05-05T13:27:21.416Z,20.36
2023-05-05T13:29:50.489Z,20.40
2023-05-05T13:32:19.144Z,20.40
2023-05-05T13:34:47.837Z,20.58
2023-05-05T13:37:16.726Z,20.72
2023-05-05T13:39:45.619Z,20.80
2023-05-05T13:42:14.309Z,20.82
2023-05-05T13:44:43.095Z,20.92
2023-05-05T13:47:11.937Z,20.80
2023-05-05T13:49:40.877Z,20.80
2023-05-05T13:52:09.894Z,20.92
2023-05-05T13:54:38.661Z,21.10
2023-05-05T13:57:08.257Z,21.20
2023-05-05T13:59:36.956Z,21.10
2023-05-05T14:02:06.464Z,21.00
2023-05-05T14:04:35.217Z,21.08
2023-05-05T14:07:05.181Z,21.10
2023-05-05T14:09:33.748Z,20.96
2023-05-05T14:12:02.637Z,20.90
2023-05-05T14:14:31.373Z,21.00
2023-05-05T14:17:00.124Z,20.90
2023-05-05T14:19:29.178Z,20.74
2023-05-05T14:21:58.212Z,20.50
2023-05-05T14:24:27.003Z,20.42
2023-05-05T14:26:55.480Z,20.50
2023-05-05T14:29:24.283Z,20.50
2023-05-05T14:31:53.018Z,20.40
2023-05-05T14:34:22.469Z,20.40
2023-05-05T14:36:51.155Z,20.30
2023-05-05T14:39:20.151Z,20.30
2023-05-05T14:41:48.725Z,20.30
2023-05-05T14:44:17.412Z,20.44
2023-05-05T14:46:46.851Z,20.42
2023-05-05T14:49:16.633Z,20.40
2023-05-05T14:51:45.321Z,20.48
2023-05-05T14:54:26.978Z,20.50
2023-05-05T14:56:57.029Z,20.50
2023-05-05T14:59:26.640Z,20.40
2023-05-05T15:01:56.708Z,20.30
2023-05-05T15:04:25.755Z,20.20
2023-05-05T15:06:54.237Z,20.10
2023-05-05T15:09:22.916Z,20.12
2023-05-05T15:11:51.508Z,20.10
2023-05-05T15:14:20.239Z,20.14
2023-05-05T15:16:48.902Z,20.20
2023-05-05T15:19:17.769Z,20.20
2023-05-05T15:21:53.313Z,20.18
2023-05-05T15:24:22.671Z,20.20
2023-05-05T15:26:51.510Z,20.10
2023-05-05T15:29:20.090Z,20.10
2023-05-05T15:31:48.720Z,20.10
2023-05-05T15:34:17.572Z,20.10
2023-05-05T15:36:49.118Z,20.20
2023-05-05T15:39:17.805Z,20.20
2023-05-05T15:41:46.399Z,20.10
2023-05-05T15:44:14.995Z,20.02
2023-05-05T15:46:43.723Z,19.90
2023-05-05T15:49:12.561Z,19.90
2023-05-05T15:51:42.063Z,19.86
2023-05-05T15:54:10.746Z,19.82
2023-05-05T15:56:39.435Z,19.80
2023-05-05T15:59:08.025Z,19.80
2023-05-05T16:01:37.145Z,19.72
2023-05-05T16:04:05.820Z,19.80
2023-05-05T16:06:34.497Z,19.80
2023-05-05T16:09:04.106Z,19.80
2023-05-05T16:11:32.784Z,19.80
2023-05-05T16:14:01.292Z,19.70
2023-05-05T16:16:33.183Z,19.68
2023-05-05T16:19:01.918Z,19.60
2023-05-05T16:21:31.320Z,19.60
2023-05-05T16:23:59.906Z,19.44
2023-05-05T16:26:28.676Z,19.20
2023-05-05T16:28:57.588Z,19.08
2023-05-05T16:31:26.505Z,19.00
2023-05-05T16:33:55.159Z,18.90
2023-05-05T16:36:24.669Z,18.80
2023-05-05T16:38:53.254Z,18.80
2023-05-05T16:41:26.289Z,18.70
2023-05-05T16:43:55.042Z,18.70
2023-05-05T16:46:23.751Z,18.60
2023-05-05T16:48:52.612Z,18.50
2023-05-05T16:51:21.293Z,18.40
2023-05-05T16:53:50.391Z,18.40
2023-05-05T16:56:18.885Z,18.30
2023-05-05T16:58:47.744Z,18.20
2023-05-05T17:01:16.576Z,18.20
2023-05-05T17:03:45.142Z,18.10
2023-05-05T17:06:13.731Z,18.10
2023-05-05T17:08:42.345Z,18.10
2023-05-05T17:11:11.924Z,18.00
2023-05-05T17:13:41.137Z,17.90
2023-05-05T17:16:09.740Z,17.70
2023-05-05T17:18:38.487Z,17.60
2023-05-05T17:21:07.174Z,17.50
2023-05-05T17:23:35.862Z,17.40
2023-05-05T17:26:05.571Z,17.36
2023-05-05T17:28:34.164Z,17.26
2023-05-05T17:31:02.947Z,17.20
2023-05-05T17:33:31.637Z,17.10
2023-05-05T17:36:00.322Z,17.10
2023-05-05T17:38:29.110Z,17.00
2023-05-05T17:40:57.900Z,16.90
2023-05-05T17:43:26.693Z,16.90
2023-05-05T17:45:55.458Z,16.80
2023-05-05T17:48:24.309Z,16.78
2023-05-05T17:50:53.377Z,16.70
2023-05-05T17:53:22.669Z,16.64
2023-05-05T17:55:51.560Z,16.60
2023-05-05T17:58:20.344Z,16.50
2023-05-05T18:00:49.235Z,16.40
2023-05-05T18:03:18.069Z,16.40
2023-05-05T18:05:46.924Z,16.30
2023-05-05T18:08:15.504Z,16.30
2023-05-05T18:10:44.400Z,16.20
2023-05-05T18:13:13.207Z,16.20
2023-05-05T18:15:41.940Z,16.10
2023-05-05T18:18:10.983Z,16.00
2023-05-05T18:20:39.876Z,15.98
2023-05-05T18:23:08.769Z,15.90
2023-05-05T18:25:37.348Z,15.82
2023-05-05T18:28:06.332Z,15.80
2023-05-05T18:30:36.246Z,15.72
2023-05-05T18:33:05.298Z,15.70
2023-05-05T18:35:34.046Z,15.62
2023-05-05T18:38:03.663Z,15.60
2023-05-05T18:40:32.235Z,15.50
2023-05-05T18:43:00.914Z,15.40
2023-05-05T18:45:29.632Z,15.40
2023-05-05T18:47:58.472Z,15.30
2023-05-05T18:50:27.496Z,15.30
2023-05-05T18:52:56.268Z,15.20
2023-05-05T18:55:24.977Z,15.20
2023-05-05T18:57:53.752Z,15.10
2023-05-05T19:00:22.641Z,15.10
2023-05-05T19:02:51.764Z,15.00
2023-05-05T19:05:20.636Z,14.92
2023-05-05T19:07:49.624Z,14.90
2023-05-05T19:10:18.314Z,14.84
2023-05-05T19:12:47.272Z,14.80
2023-05-05T19:15:16.302Z,14.80
2023-05-05T19:17:45.045Z,14.70
2023-05-05T19:20:13.880Z,14.70
2023-05-05T19:22:42.762Z,14.60
2023-05-05T19:25:14.500Z,14.60
2023-05-05T19:27:43.638Z,14.56
2023-05-05T19:30:13.229Z,14.50
2023-05-05T19:32:41.856Z,14.50
2023-05-05T19:35:12.022Z,14.50
2023-05-05T19:37:41.233Z,14.48
2023-05-05T19:40:10.994Z,14.40
2023-05-05T19:42:40.147Z,14.40
2023-05-05T19:45:09.235Z,14.40
2023-05-05T19:47:38.074Z,14.40
2023-05-05T19:50:08.086Z,14.40
2023-05-05T19:52:38.596Z,14.40
2023-05-05T19:55:10.649Z,14.30
2023-05-05T19:57:40.799Z,14.30
2023-05-05T20:00:11.219Z,14.30
2023-05-05T20:02:40.086Z,14.30
2023-05-05T20:05:11.702Z,14.24
2023-05-05T20:07:42.235Z,14.20
2023-05-05T20:10:13.635Z,14.20
2023-05-05T20:12:48.357Z,14.20
2023-05-05T20:15:22.293Z,14.20
2023-05-05T20:17:50.970Z,14.20
2023-05-05T20:20:22.837Z,14.14
2023-05-05T20:22:51.395Z,14.10
2023-05-05T20:25:20.177Z,14.10
2023-05-05T20:27:48.762Z,14.10
2023-05-05T20:30:17.359Z,14.00
2023-05-05T20:32:46.282Z,14.00
2023-05-05T20:35:15.231Z,14.00
2023-05-05T20:37:45.365Z,14.00
2023-05-05T20:40:14.455Z,14.00
2023-05-05T20:42:43.141Z,13.92
2023-05-05T20:45:12.458Z,13.90
2023-05-05T20:47:41.393Z,13.90
2023-05-05T20:50:11.919Z,13.90
2023-05-05T20:52:40.966Z,13.90
2023-05-05T20:55:10.161Z,13.84
2023-05-05T20:57:39.048Z,13.80
2023-05-05T21:00:09.389Z,13.80
2023-05-05T21:02:38.385Z,13.80
2023-05-05T21:05:08.294Z,13.76
2023-05-05T21:07:36.880Z,13.72
2023-05-05T21:10:06.978Z,13.70
2023-05-05T21:12:35.831Z,13.70
2023-05-05T21:15:05.848Z,13.70
2023-05-05T21:17:34.855Z,13.70
2023-05-05T21:20:03.896Z,13.70
2023-05-05T21:22:32.581Z,13.70
2023-05-05T21:25:19.881Z,13.70
2023-05-05T21:27:49.283Z,13.60
2023-05-05T21:30:18.296Z,13.60
2023-05-05T21:32:47.308Z,13.60
2023-05-05T21:35:16.095Z,13.60
2023-05-05T21:37:45.178Z,13.60
2023-05-05T21:40:16.360Z,13.60
2023-05-05T21:42:44.902Z,13.52
2023-05-05T21:45:13.696Z,13.50
2023-05-05T21:47:42.474Z,13.50
2023-05-05T21:50:12.684Z,13.50
2023-05-05T21:52:41.698Z,13.50
2023-05-05T21:55:11.304Z,13.44
2023-05-05T21:57:39.918Z,13.40
2023-05-05T22:00:10.133Z,13.40
2023-05-05T22:02:41.526Z,13.40
2023-05-05T22:05:10.871Z,13.40
2023-05-05T22:07:39.766Z,13.40
2023-05-05T22:10:09.675Z,13.40
2023-05-05T22:12:38.604Z,13.30
2023-05-05T22:15:08.969Z,13.30
2023-05-05T22:17:37.777Z,13.30
2023-05-05T22:20:09.409Z,13.30
2023-05-05T22:22:38.332Z,13.28
2023-05-05T22:25:08.051Z,13.22
2023-05-05T22:27:36.834Z,13.20
2023-05-05T22:30:06.631Z,13.20
2023-05-05T22:32:35.370Z,13.20
2023-05-05T22:35:05.406Z,13.20
2023-05-05T22:37:34.037Z,13.20
2023-05-05T22:40:02.927Z,13.20
2023-05-05T22:42:31.517Z,13.18
2023-05-05T22:45:00.156Z,13.14
2023-05-05T22:47:28.920Z,13.10
2023-05-05T22:49:58.185Z,13.10
2023-05-05T22:52:28.718Z,13.10
2023-05-05T22:54:57.323Z,13.10
2023-05-05T22:57:26.495Z,13.10
2023-05-05T22:59:55.204Z,13.10
2023-05-05T23:02:24.227Z,13.10
2023-05-05T23:04:53.067Z,13.10
2023-05-05T23:07:21.677Z,13.10
2023-05-05T23:09:50.343Z,13.08
2023-05-05T23:12:19.233Z,13.00
2023-05-05T23:14:48.747Z,13.02
2023-05-05T23:17:17.223Z,13.00
2023-05-05T23:19:48.805Z,13.00
2023-05-05T23:22:17.373Z,13.00
2023-05-05T23:24:46.049Z,13.00
2023-05-05T23:27:14.838Z,13.00
2023-05-05T23:29:43.322Z,13.00
2023-05-05T23:32:11.906Z,13.00
2023-05-05T23:34:40.489Z,13.00
2023-05-05T23:37:09.176Z,13.00
2023-05-05T23:39:37.884Z,13.00
2023-05-05T23:42:06.658Z,13.00
2023-05-05T23:44:35.243Z,13.00
2023-05-05T23:47:03.822Z,13.00
2023-05-05T23:49:32.515Z,12.96
2023-05-05T23:52:01.198Z,12.92
2023-05-05T23:54:29.781Z,12.90
2023-05-05T23:57:00.511Z,12.90
2023-05-05T23:59:29.125Z,12.90
